createdAt,value
2022-12-05T00:00:18.178Z,85.41
2022-12-05T00:01:29.354Z,85.60
2022-12-05T00:02:02.589Z,85.65
2022-12-05T00:02:35.990Z,85.73
2022-12-05T00:03:09.269Z,85.49
2022-12-05T00:03:42.920Z,85.45
2022-12-05T00:04:16.276Z,85.58
2022-12-05T00:04:49.692Z,85.54
2022-12-05T00:05:25.555Z,85.66
2022-12-05T00:05:59.076Z,85.55
2022-12-05T00:06:34.216Z,85.50
2022-12-05T00:07:07.443Z,85.57
2022-12-05T00:07:41.034Z,85.54
2022-12-05T00:08:14.535Z,85.72
2022-12-05T00:08:49.168Z,85.57
2022-12-05T00:09:22.454Z,85.65
2022-12-05T00:09:56.409Z,85.34
2022-12-05T00:10:29.916Z,85.68
2022-12-05T00:11:03.534Z,85.49
2022-12-05T00:11:40.299Z,85.55
2022-12-05T00:12:13.550Z,85.47
2022-12-05T00:12:49.585Z,85.45
2022-12-05T00:13:22.744Z,85.60
2022-12-05T00:13:57.540Z,85.60
2022-12-05T00:14:31.046Z,85.58
2022-12-05T00:15:04.779Z,85.35
2022-12-05T00:15:41.470Z,85.67
2022-12-05T00:16:17.682Z,85.52
2022-12-05T00:16:51.115Z,85.57
2022-12-05T00:17:24.640Z,85.44
2022-12-05T00:17:57.987Z,85.72
2022-12-05T00:18:31.200Z,85.52
2022-12-05T00:19:06.115Z,85.96
2022-12-05T00:19:39.950Z,85.65
2022-12-05T00:20:13.330Z,85.65
2022-12-05T00:20:49.115Z,85.71
2022-12-05T00:21:25.144Z,85.78
2022-12-05T00:21:58.353Z,85.65
2022-12-05T00:22:31.668Z,85.77
2022-12-05T00:23:04.961Z,85.53
2022-12-05T00:23:38.218Z,85.76
2022-12-05T00:24:14.449Z,85.82
2022-12-05T00:24:47.663Z,85.72
2022-12-05T00:25:21.014Z,85.77
2022-12-05T00:25:54.427Z,85.94
2022-12-05T00:26:30.599Z,85.61
2022-12-05T00:27:04.014Z,85.69
2022-12-05T00:27:37.746Z,86.11
2022-12-05T00:28:11.004Z,85.71
2022-12-05T00:28:45.428Z,85.88
2022-12-05T00:29:19.088Z,85.82
2022-12-05T00:29:52.542Z,85.83
2022-12-05T00:30:25.870Z,85.70
2022-12-05T00:31:22.873Z,85.88
2022-12-05T00:31:56.501Z,85.98
2022-12-05T00:32:30.198Z,85.99
2022-12-05T00:33:03.472Z,85.96
2022-12-05T00:33:37.133Z,85.81
2022-12-05T00:34:10.900Z,85.79
2022-12-05T00:34:47.244Z,85.85
2022-12-05T00:35:20.895Z,85.98
2022-12-05T00:35:54.210Z,85.89
2022-12-05T00:36:30.229Z,85.87
2022-12-05T00:37:03.684Z,85.96
2022-12-05T00:37:37.670Z,85.92
2022-12-05T00:38:10.842Z,85.92
2022-12-05T00:38:44.630Z,85.92
2022-12-05T00:39:18.051Z,85.91
2022-12-05T00:39:51.312Z,86.04
2022-12-05T00:40:24.649Z,86.24
2022-12-05T00:41:09.899Z,85.94
2022-12-05T00:41:43.773Z,85.72
2022-12-05T00:42:17.186Z,86.16
2022-12-05T00:42:52.382Z,85.89
2022-12-05T00:43:25.901Z,85.87
2022-12-05T00:44:01.582Z,85.86
2022-12-05T00:44:34.969Z,85.89
2022-12-05T00:45:09.428Z,85.85
2022-12-05T00:45:42.736Z,85.79
2022-12-05T00:46:20.653Z,85.77
2022-12-05T00:46:54.054Z,86.01
2022-12-05T00:47:27.344Z,85.97
2022-12-05T00:48:00.568Z,85.93
2022-12-05T00:48:34.004Z,86.08
2022-12-05T00:49:08.277Z,86.22
2022-12-05T00:49:41.533Z,86.11
2022-12-05T00:50:14.973Z,85.98
2022-12-05T00:50:48.264Z,86.13
2022-12-05T00:51:27.289Z,86.16
2022-12-05T00:52:00.654Z,86.19
2022-12-05T00:52:33.941Z,86.12
2022-12-05T00:53:07.303Z,86.07
2022-12-05T00:53:41.034Z,86.14
2022-12-05T00:54:17.178Z,86.04
2022-12-05T00:54:50.508Z,86.13
2022-12-05T00:55:23.773Z,85.89
2022-12-05T00:55:57.259Z,86.05
2022-12-05T00:56:32.107Z,86.04
2022-12-05T00:57:05.392Z,86.23
2022-12-05T00:57:38.634Z,85.79
2022-12-05T00:58:11.901Z,86.13
2022-12-05T00:58:45.750Z,85.90
2022-12-05T00:59:23.138Z,85.75
2022-12-05T00:59:56.676Z,85.65
2022-12-05T01:00:30.078Z,86.08
2022-12-05T01:01:14.180Z,85.95
2022-12-05T01:01:51.530Z,86.20
2022-12-05T01:02:24.937Z,85.92
2022-12-05T01:02:58.334Z,86.07
2022-12-05T01:03:34.821Z,85.93
2022-12-05T01:04:12.086Z,86.09
2022-12-05T01:04:45.483Z,86.27
2022-12-05T01:05:18.913Z,86.09
2022-12-05T01:05:52.200Z,86.07
2022-12-05T01:06:27.163Z,86.12
2022-12-05T01:07:00.400Z,86.31
2022-12-05T01:07:34.811Z,86.06
2022-12-05T01:08:08.101Z,86.13
2022-12-05T01:08:41.767Z,85.93
2022-12-05T01:09:17.533Z,86.02
2022-12-05T01:09:50.968Z,86.16
2022-12-05T01:10:24.222Z,86.22
2022-12-05T01:10:58.818Z,86.32
2022-12-05T01:11:41.036Z,86.27
2022-12-05T01:12:14.874Z,86.26
2022-12-05T01:12:48.029Z,86.06
2022-12-05T01:13:21.867Z,85.99
2022-12-05T01:13:56.155Z,85.99
2022-12-05T01:14:29.462Z,86.16
2022-12-05T01:15:04.508Z,85.99
2022-12-05T01:15:37.933Z,86.27
2022-12-05T01:16:20.982Z,86.36
2022-12-05T01:16:56.352Z,86.13
2022-12-05T01:17:29.697Z,86.11
2022-12-05T01:18:05.743Z,86.24
2022-12-05T01:18:41.491Z,86.31
2022-12-05T01:19:19.809Z,86.20
2022-12-05T01:19:53.299Z,86.25
2022-12-05T01:20:26.571Z,86.26
2022-12-05T01:21:00.533Z,86.24
2022-12-05T01:21:37.357Z,86.24
2022-12-05T01:22:10.755Z,86.17
2022-12-05T01:22:44.495Z,85.97
2022-12-05T01:23:18.368Z,86.05
2022-12-05T01:23:51.901Z,86.20
2022-12-05T01:24:26.760Z,86.06
2022-12-05T01:25:00.092Z,86.08
2022-12-05T01:25:33.594Z,86.13
2022-12-05T01:26:13.193Z,86.11
2022-12-05T01:26:47.187Z,86.15
2022-12-05T01:27:20.425Z,86.15
2022-12-05T01:27:53.591Z,86.11
2022-12-05T01:28:26.932Z,86.13
2022-12-05T01:29:00.271Z,86.07
2022-12-05T01:29:33.528Z,86.01
2022-12-05T01:30:07.343Z,85.96
2022-12-05T01:30:42.421Z,86.12
2022-12-05T01:31:21.994Z,86.16
2022-12-05T01:31:55.391Z,86.10
2022-12-05T01:32:28.749Z,85.96
2022-12-05T01:33:01.980Z,86.05
2022-12-05T01:33:36.016Z,86.00
2022-12-05T01:34:12.763Z,86.18
2022-12-05T01:34:46.197Z,85.84
2022-12-05T01:35:19.558Z,86.01
2022-12-05T01:35:52.773Z,85.85
2022-12-05T01:36:27.148Z,85.92
2022-12-05T01:37:00.460Z,85.93
2022-12-05T01:37:33.629Z,85.74
2022-12-05T01:38:08.441Z,85.84
2022-12-05T01:38:42.878Z,85.88
2022-12-05T01:39:18.596Z,85.96
2022-12-05T01:39:51.864Z,85.96
2022-12-05T01:40:25.379Z,85.99
2022-12-05T01:41:03.726Z,85.89
2022-12-05T01:41:44.895Z,85.90
2022-12-05T01:42:21.884Z,85.92
2022-12-05T01:42:59.856Z,85.82
2022-12-05T01:43:33.911Z,85.66
2022-12-05T01:44:11.561Z,85.76
2022-12-05T01:44:47.722Z,85.72
2022-12-05T01:45:37.900Z,85.60
2022-12-05T01:46:11.319Z,85.64
2022-12-05T01:46:49.043Z,85.71
2022-12-05T01:47:24.658Z,85.72
2022-12-05T01:47:58.375Z,85.98
2022-12-05T01:48:35.745Z,86.15
2022-12-05T01:49:18.364Z,85.83
2022-12-05T01:49:51.755Z,85.94
2022-12-05T01:50:25.133Z,86.20
2022-12-05T01:51:00.156Z,86.39
2022-12-05T01:51:34.623Z,86.47
2022-12-05T01:52:14.408Z,86.75
2022-12-05T01:52:48.277Z,86.35
2022-12-05T01:53:22.805Z,86.26
2022-12-05T01:53:56.606Z,86.52
2022-12-05T01:54:30.751Z,86.49
2022-12-05T01:55:09.193Z,86.56
2022-12-05T01:55:43.063Z,86.48
2022-12-05T01:56:17.700Z,86.58
2022-12-05T01:57:01.200Z,86.63
2022-12-05T01:57:37.830Z,86.22
2022-12-05T01:58:11.450Z,86.69
2022-12-05T01:58:49.083Z,86.35
2022-12-05T01:59:24.264Z,86.30
2022-12-05T02:00:02.578Z,86.38
2022-12-05T02:00:45.448Z,86.41
2022-12-05T02:01:19.498Z,86.32
2022-12-05T02:01:52.921Z,86.03
2022-12-05T02:02:28.317Z,86.34
2022-12-05T02:03:06.795Z,86.15
2022-12-05T02:03:41.827Z,86.20
2022-12-05T02:04:15.161Z,86.19
2022-12-05T02:04:59.134Z,86.23
2022-12-05T02:05:35.734Z,86.00
2022-12-05T02:06:09.724Z,86.21
2022-12-05T02:06:43.350Z,86.19
2022-12-05T02:07:18.008Z,86.27
2022-12-05T02:07:52.519Z,86.06
2022-12-05T02:08:28.863Z,86.38
2022-12-05T02:09:02.416Z,86.25
2022-12-05T02:09:36.655Z,86.31
2022-12-05T02:10:11.343Z,86.30
2022-12-05T02:10:47.661Z,86.36
2022-12-05T02:11:24.538Z,86.21
2022-12-05T02:12:02.264Z,86.28
2022-12-05T02:12:38.887Z,86.07
2022-12-05T02:13:36.773Z,86.17
2022-12-05T02:14:12.888Z,86.22
2022-12-05T02:15:10.494Z,86.25
2022-12-05T02:16:00.836Z,86.04
2022-12-05T02:17:07.154Z,85.83
2022-12-05T02:18:04.852Z,85.97
2022-12-05T02:18:47.097Z,86.03
2022-12-05T02:19:48.578Z,86.34
2022-12-05T02:20:27.204Z,86.11
2022-12-05T02:21:19.009Z,86.01
2022-12-05T02:22:23.080Z,86.11
2022-12-05T02:23:27.693Z,86.04
2022-12-05T02:24:27.329Z,86.09
2022-12-05T02:25:23.383Z,86.18
2022-12-05T02:26:05.305Z,86.22
2022-12-05T02:27:35.748Z,86.14
2022-12-05T02:28:16.961Z,86.12
2022-12-05T02:29:05.600Z,86.12
2022-12-05T02:29:57.324Z,86.07
2022-12-05T02:30:40.544Z,86.04
2022-12-05T02:31:39.974Z,85.89
2022-12-05T02:32:31.656Z,85.95
2022-12-05T02:33:29.215Z,86.16
2022-12-05T02:34:20.590Z,85.85
2022-12-05T02:35:00.909Z,85.60
2022-12-05T02:35:52.204Z,85.62
2022-12-05T02:36:41.114Z,85.84
2022-12-05T02:37:20.723Z,85.68
2022-12-05T02:38:03.364Z,85.66
2022-12-05T02:38:53.261Z,85.65
2022-12-05T02:39:35.747Z,85.54
2022-12-05T02:40:31.167Z,85.59
2022-12-05T02:41:23.559Z,85.72
2022-12-05T02:42:31.767Z,85.72
2022-12-05T02:43:14.913Z,85.96
2022-12-05T02:44:03.878Z,86.05
2022-12-05T02:44:40.678Z,85.72
2022-12-05T02:45:18.738Z,85.79
2022-12-05T02:46:02.587Z,85.55
2022-12-05T02:46:40.503Z,85.46
2022-12-05T02:47:18.062Z,85.48
2022-12-05T02:47:54.703Z,85.05
2022-12-05T02:48:36.319Z,85.07
2022-12-05T02:50:44.507Z,85.14
2022-12-05T02:51:22.415Z,85.29
2022-12-05T02:51:58.460Z,85.13
2022-12-05T02:52:34.843Z,85.09
2022-12-05T02:53:12.640Z,84.98
2022-12-05T02:53:50.815Z,85.18
2022-12-05T02:54:28.060Z,85.05
2022-12-05T02:55:03.056Z,85.08
2022-12-05T02:55:40.601Z,84.95
2022-12-05T02:56:22.624Z,85.26
2022-12-05T02:57:01.408Z,85.11
2022-12-05T02:57:38.764Z,85.12
2022-12-05T02:58:17.733Z,85.17
2022-12-05T02:58:53.713Z,85.11
2022-12-05T03:00:14.998Z,85.16
2022-12-05T03:00:51.240Z,85.20
2022-12-05T03:01:28.775Z,85.26
2022-12-05T03:02:02.119Z,85.40
2022-12-05T03:02:43.412Z,85.05
2022-12-05T03:03:22.827Z,85.24
2022-12-05T03:03:59.354Z,85.14
2022-12-05T03:04:34.840Z,85.16
2022-12-05T03:05:41.333Z,85.04
2022-12-05T03:06:21.428Z,85.09
2022-12-05T03:06:59.206Z,85.40
2022-12-05T03:07:33.477Z,85.24
2022-12-05T03:08:11.958Z,85.25
2022-12-05T03:09:01.246Z,85.38
2022-12-05T03:09:44.549Z,85.18
2022-12-05T03:10:21.495Z,85.22
2022-12-05T03:10:56.797Z,85.22
2022-12-05T03:11:37.974Z,85.02
2022-12-05T03:12:26.225Z,85.16
2022-12-05T03:13:08.764Z,85.13
2022-12-05T03:13:49.897Z,84.95
2022-12-05T03:14:26.393Z,84.88
2022-12-05T03:15:05.848Z,84.91
2022-12-05T03:15:47.279Z,84.81
2022-12-05T03:16:26.257Z,84.92
2022-12-05T03:17:08.458Z,85.10
2022-12-05T03:18:13.372Z,84.82
2022-12-05T03:18:58.619Z,84.85
2022-12-05T03:19:53.605Z,84.80
2022-12-05T03:20:34.828Z,84.85
2022-12-05T03:21:30.753Z,84.97
2022-12-05T03:22:16.668Z,84.93
2022-12-05T03:23:07.834Z,85.10
2022-12-05T03:23:47.995Z,84.95
2022-12-05T03:24:21.625Z,84.87
2022-12-05T03:24:57.587Z,84.86
2022-12-05T03:25:40.674Z,85.07
2022-12-05T03:26:20.783Z,84.95
2022-12-05T03:27:07.851Z,84.85
2022-12-05T03:27:50.061Z,84.91
2022-12-05T03:29:06.240Z,84.80
2022-12-05T03:30:21.672Z,85.02
2022-12-05T03:31:03.799Z,85.15
2022-12-05T03:32:05.622Z,84.89
2022-12-05T03:33:03.910Z,85.03
2022-12-05T03:33:48.304Z,84.93
2022-12-05T03:34:42.568Z,85.19
2022-12-05T03:35:32.103Z,84.95
2022-12-05T03:36:14.481Z,84.92
2022-12-05T03:36:53.034Z,85.31
2022-12-05T03:37:51.613Z,85.17
2022-12-05T03:39:18.758Z,85.11
2022-12-05T03:40:01.124Z,85.24
2022-12-05T03:41:02.642Z,85.12
2022-12-05T03:41:55.228Z,84.91
2022-12-05T03:42:38.489Z,84.98
2022-12-05T03:43:52.645Z,84.91
2022-12-05T03:44:41.976Z,85.08
2022-12-05T03:45:30.248Z,85.29
2022-12-05T03:46:20.156Z,85.14
2022-12-05T03:46:55.472Z,85.60
2022-12-05T03:47:39.413Z,85.55
2022-12-05T03:48:28.139Z,85.44
2022-12-05T03:49:15.522Z,85.49
2022-12-05T03:49:54.879Z,85.63
2022-12-05T03:50:31.973Z,85.51
2022-12-05T03:51:10.744Z,85.29
2022-12-05T03:52:01.263Z,85.42
2022-12-05T03:53:21.054Z,85.55
2022-12-05T03:54:05.979Z,85.51
2022-12-05T03:54:47.429Z,85.57
2022-12-05T03:55:25.364Z,85.47
2022-12-05T03:56:08.840Z,85.45
2022-12-05T03:56:55.283Z,85.72
2022-12-05T03:57:57.227Z,85.47
2022-12-05T03:58:45.099Z,85.32
2022-12-05T03:59:46.545Z,85.16
2022-12-05T04:00:24.693Z,85.32
2022-12-05T04:01:01.348Z,85.17
2022-12-05T04:01:38.041Z,85.20
2022-12-05T04:02:25.178Z,85.26
2022-12-05T04:03:14.592Z,85.05
2022-12-05T04:03:55.234Z,85.10
2022-12-05T04:04:48.424Z,84.98
2022-12-05T04:05:37.474Z,85.07
2022-12-05T04:06:37.275Z,84.91
2022-12-05T04:07:23.525Z,84.95
2022-12-05T04:08:04.675Z,85.03
2022-12-05T04:08:52.950Z,84.90
2022-12-05T04:09:35.452Z,84.99
2022-12-05T04:10:18.539Z,84.59
2022-12-05T04:11:03.376Z,84.60
2022-12-05T04:11:42.914Z,84.69
2022-12-05T04:12:29.645Z,84.26
2022-12-05T04:13:18.080Z,84.40
2022-12-05T04:13:59.745Z,84.32
2022-12-05T04:14:45.916Z,84.34
2022-12-05T04:15:49.568Z,83.99
2022-12-05T04:16:51.673Z,84.12
2022-12-05T04:17:34.341Z,84.34
2022-12-05T04:18:09.914Z,84.38
2022-12-05T04:19:00.112Z,84.30
2022-12-05T04:20:16.946Z,84.18
2022-12-05T04:21:11.661Z,84.23
2022-12-05T04:21:49.574Z,84.08
2022-12-05T04:22:25.177Z,83.98
2022-12-05T04:23:01.536Z,84.15
2022-12-05T04:23:44.817Z,84.26
2022-12-05T04:24:50.696Z,84.22
2022-12-05T04:25:35.844Z,84.03
2022-12-05T04:26:23.966Z,84.40
2022-12-05T04:27:09.269Z,84.53
2022-12-05T04:28:06.401Z,84.33
2022-12-05T04:29:10.968Z,84.35
2022-12-05T04:29:59.531Z,84.05
2022-12-05T04:30:46.034Z,84.47
2022-12-05T04:31:28.345Z,84.42
2022-12-05T04:32:06.917Z,84.53
2022-12-05T04:32:46.842Z,84.12
2022-12-05T04:33:41.444Z,84.45
2022-12-05T04:34:16.394Z,84.35
2022-12-05T04:34:58.038Z,84.33
2022-12-05T04:35:40.813Z,84.10
2022-12-05T04:36:23.622Z,84.15
2022-12-05T04:37:04.068Z,83.84
2022-12-05T04:37:42.854Z,84.13
2022-12-05T04:38:47.323Z,84.23
2022-12-05T04:39:42.633Z,84.21
2022-12-05T04:40:27.244Z,84.33
2022-12-05T04:41:07.823Z,84.49
2022-12-05T04:41:46.911Z,84.51
2022-12-05T04:42:27.270Z,84.57
2022-12-05T04:43:03.873Z,84.57
2022-12-05T04:43:50.840Z,84.48
2022-12-05T04:44:35.386Z,84.49
2022-12-05T04:45:21.367Z,84.56
2022-12-05T04:46:01.423Z,84.81
2022-12-05T04:46:38.477Z,84.67
2022-12-05T04:47:15.135Z,84.53
2022-12-05T04:47:55.778Z,84.70
2022-12-05T04:48:35.075Z,84.80
2022-12-05T04:49:15.282Z,84.68
2022-12-05T04:49:53.969Z,84.83
2022-12-05T04:50:34.254Z,84.88
2022-12-05T04:51:09.957Z,84.88
2022-12-05T04:51:44.830Z,85.02
2022-12-05T04:52:24.759Z,84.94
2022-12-05T04:53:12.450Z,85.17
2022-12-05T04:54:00.848Z,85.04
2022-12-05T04:54:45.934Z,85.00
2022-12-05T04:55:30.881Z,85.14
2022-12-05T04:56:05.454Z,84.93
2022-12-05T04:56:41.168Z,85.12
2022-12-05T04:57:33.752Z,84.98
2022-12-05T04:58:12.076Z,85.00
2022-12-05T04:58:53.326Z,84.90
2022-12-05T04:59:33.227Z,84.86
2022-12-05T05:00:08.374Z,85.00
2022-12-05T05:01:02.513Z,85.38
2022-12-05T05:01:50.189Z,85.32
2022-12-05T05:02:45.046Z,85.13
2022-12-05T05:03:32.189Z,85.48
2022-12-05T05:04:17.306Z,85.36
2022-12-05T05:04:57.519Z,85.62
2022-12-05T05:05:35.472Z,85.42
2022-12-05T05:06:12.196Z,85.34
2022-12-05T05:06:45.604Z,85.48
2022-12-05T05:07:23.044Z,85.41
2022-12-05T05:07:59.106Z,85.61
2022-12-05T05:08:32.543Z,85.43
2022-12-05T05:09:11.557Z,85.65
2022-12-05T05:09:45.108Z,85.61
2022-12-05T05:10:36.885Z,85.73
2022-12-05T05:11:17.888Z,85.51
2022-12-05T05:11:56.658Z,85.47
2022-12-05T05:12:32.384Z,85.61
2022-12-05T05:13:05.871Z,85.68
2022-12-05T05:13:41.989Z,85.75
2022-12-05T05:14:15.279Z,85.78
2022-12-05T05:14:48.591Z,85.96
2022-12-05T05:15:21.905Z,85.70
2022-12-05T05:15:55.353Z,85.58
2022-12-05T05:16:31.884Z,85.76
2022-12-05T05:17:08.733Z,85.85
2022-12-05T05:17:41.960Z,85.75
2022-12-05T05:18:15.201Z,85.86
2022-12-05T05:18:49.544Z,85.92
2022-12-05T05:19:23.061Z,85.86
2022-12-05T05:20:19.924Z,85.65
2022-12-05T05:20:53.516Z,85.78
2022-12-05T05:21:32.618Z,85.59
2022-12-05T05:22:05.909Z,85.50
2022-12-05T05:22:39.069Z,85.90
2022-12-05T05:23:14.925Z,85.88
2022-12-05T05:23:48.667Z,85.71
2022-12-05T05:24:23.652Z,85.52
2022-12-05T05:24:57.003Z,85.32
2022-12-05T05:25:30.272Z,85.41
2022-12-05T05:26:06.453Z,85.42
2022-12-05T05:26:42.730Z,85.37
2022-12-05T05:27:18.483Z,85.51
2022-12-05T05:27:54.184Z,85.36
2022-12-05T05:28:27.410Z,85.64
2022-12-05T05:29:00.760Z,85.69
2022-12-05T05:29:34.037Z,85.62
2022-12-05T05:30:07.925Z,85.41
2022-12-05T05:30:41.155Z,85.60
2022-12-05T05:31:15.300Z,85.54
2022-12-05T05:31:52.776Z,85.59
2022-12-05T05:32:26.003Z,85.51
2022-12-05T05:33:00.853Z,85.75
2022-12-05T05:33:35.174Z,85.68
2022-12-05T05:34:09.944Z,85.48
2022-12-05T05:34:43.393Z,85.85
2022-12-05T05:35:17.144Z,85.57
2022-12-05T05:35:50.350Z,85.77
2022-12-05T05:36:25.893Z,85.61
2022-12-05T05:37:02.404Z,85.48
2022-12-05T05:37:35.645Z,85.57
2022-12-05T05:38:08.923Z,85.85
2022-12-05T05:38:49.634Z,85.69
2022-12-05T05:39:23.134Z,85.73
2022-12-05T05:39:58.818Z,85.59
2022-12-05T05:40:38.067Z,85.51
2022-12-05T05:41:19.673Z,85.73
2022-12-05T05:41:52.864Z,85.81
2022-12-05T05:42:26.241Z,85.93
2022-12-05T05:42:59.499Z,85.75
2022-12-05T05:43:32.891Z,85.68
2022-12-05T05:44:06.266Z,85.60
2022-12-05T05:44:39.496Z,85.49
2022-12-05T05:45:14.574Z,85.85
2022-12-05T05:45:47.834Z,86.01
2022-12-05T05:46:24.873Z,85.99
2022-12-05T05:47:00.708Z,85.89
2022-12-05T05:47:35.224Z,86.38
2022-12-05T05:48:08.425Z,86.12
2022-12-05T05:48:44.868Z,86.21
2022-12-05T05:49:18.280Z,86.23
2022-12-05T05:49:51.774Z,86.17
2022-12-05T05:50:29.064Z,86.36
2022-12-05T05:51:03.644Z,86.14
2022-12-05T05:51:41.961Z,86.36
2022-12-05T05:52:15.168Z,86.48
2022-12-05T05:52:51.003Z,86.40
2022-12-05T05:53:26.395Z,86.40
2022-12-05T05:54:02.516Z,86.39
2022-12-05T05:54:35.778Z,86.36
2022-12-05T05:55:09.767Z,86.58
2022-12-05T05:55:43.319Z,86.51
2022-12-05T05:56:21.839Z,86.73
2022-12-05T05:56:55.583Z,86.65
2022-12-05T05:57:31.058Z,86.58
2022-12-05T05:58:08.004Z,86.94
2022-12-05T05:58:44.480Z,87.06
2022-12-05T05:59:18.065Z,86.87
2022-12-05T05:59:51.460Z,86.88
2022-12-05T06:00:24.646Z,86.87
2022-12-05T06:01:24.554Z,86.80
2022-12-05T06:01:57.896Z,86.85
2022-12-05T06:02:33.921Z,86.74
2022-12-05T06:03:08.421Z,86.64
2022-12-05T06:03:42.801Z,86.73
2022-12-05T06:04:17.233Z,86.83
2022-12-05T06:04:50.850Z,86.88
2022-12-05T06:05:26.169Z,86.63
2022-12-05T06:06:01.627Z,86.87
2022-12-05T06:06:35.123Z,87.02
2022-12-05T06:07:08.396Z,86.80
2022-12-05T06:07:41.788Z,86.80
2022-12-05T06:08:15.174Z,86.82
2022-12-05T06:08:48.772Z,86.75
2022-12-05T06:09:21.998Z,86.42
2022-12-05T06:09:55.498Z,86.74
2022-12-05T06:10:30.288Z,86.84
2022-12-05T06:11:18.900Z,86.87
2022-12-05T06:11:58.588Z,87.01
2022-12-05T06:12:31.786Z,87.04
2022-12-05T06:13:07.432Z,86.84
2022-12-05T06:13:41.598Z,86.95
2022-12-05T06:14:15.142Z,87.10
2022-12-05T06:14:49.928Z,86.95
2022-12-05T06:15:24.857Z,86.87
2022-12-05T06:15:58.078Z,87.11
2022-12-05T06:16:32.245Z,87.13
2022-12-05T06:17:05.624Z,86.72
2022-12-05T06:17:39.019Z,86.65
2022-12-05T06:18:12.298Z,86.56
2022-12-05T06:18:47.805Z,86.45
2022-12-05T06:19:21.216Z,86.48
2022-12-05T06:19:54.550Z,86.52
2022-12-05T06:20:27.791Z,86.53
2022-12-05T06:21:05.921Z,86.61
2022-12-05T06:21:39.388Z,86.29
2022-12-05T06:22:22.973Z,85.95
2022-12-05T06:22:58.724Z,86.00
2022-12-05T06:23:32.017Z,86.53
2022-12-05T06:24:05.603Z,86.60
2022-12-05T06:24:38.893Z,86.68
2022-12-05T06:25:12.184Z,86.23
2022-12-05T06:25:50.455Z,86.42
2022-12-05T06:26:24.306Z,86.66
2022-12-05T06:26:57.537Z,86.59
2022-12-05T06:27:31.950Z,86.63
2022-12-05T06:28:06.341Z,86.87
2022-12-05T06:28:40.113Z,86.72
2022-12-05T06:29:13.478Z,86.95
2022-12-05T06:29:46.624Z,86.91
2022-12-05T06:30:20.046Z,87.03
2022-12-05T06:30:55.251Z,86.95
2022-12-05T06:31:31.317Z,86.82
2022-12-05T06:32:04.925Z,87.04
2022-12-05T06:32:38.236Z,87.03
2022-12-05T06:33:12.480Z,86.95
2022-12-05T06:33:46.357Z,86.79
2022-12-05T06:34:19.576Z,87.00
2022-12-05T06:34:52.810Z,86.86
2022-12-05T06:35:26.114Z,87.06
2022-12-05T06:36:08.034Z,86.86
2022-12-05T06:36:41.188Z,86.62
2022-12-05T06:37:14.483Z,86.56
2022-12-05T06:37:50.044Z,86.78
2022-12-05T06:38:23.267Z,87.34
2022-12-05T06:38:57.968Z,87.45
2022-12-05T06:39:33.874Z,87.11
2022-12-05T06:40:07.700Z,87.30
2022-12-05T06:40:45.356Z,87.44
2022-12-05T06:41:24.570Z,87.39
2022-12-05T06:41:57.899Z,87.50
2022-12-05T06:42:32.928Z,87.65
2022-12-05T06:43:06.213Z,87.66
2022-12-05T06:43:39.401Z,87.40
2022-12-05T06:44:12.639Z,87.40
2022-12-05T06:44:45.930Z,87.43
2022-12-05T06:45:19.522Z,87.41
2022-12-05T06:45:52.862Z,87.52
2022-12-05T06:46:26.672Z,87.75
2022-12-05T06:46:59.919Z,87.48
2022-12-05T06:47:33.132Z,87.55
2022-12-05T06:48:07.128Z,87.61
2022-12-05T06:48:40.423Z,87.48
2022-12-05T06:49:16.663Z,87.48
2022-12-05T06:49:49.944Z,87.63
2022-12-05T06:50:25.283Z,87.78
2022-12-05T06:50:58.595Z,87.65
2022-12-05T06:51:31.971Z,87.47
2022-12-05T06:52:07.666Z,87.47
2022-12-05T06:52:40.977Z,87.50
2022-12-05T06:53:14.259Z,87.26
2022-12-05T06:53:47.575Z,87.35
2022-12-05T06:54:20.749Z,87.26
2022-12-05T06:54:54.119Z,87.37
2022-12-05T06:55:27.467Z,87.28
2022-12-05T06:56:03.191Z,87.26
2022-12-05T06:56:36.568Z,87.45
2022-12-05T06:57:10.285Z,87.42
2022-12-05T06:57:43.484Z,87.31
2022-12-05T06:58:16.849Z,87.50
2022-12-05T06:58:52.609Z,87.53
2022-12-05T06:59:28.284Z,87.77
2022-12-05T07:00:22.039Z,87.78
2022-12-05T07:01:16.857Z,87.82
2022-12-05T07:01:50.484Z,87.77
2022-12-05T07:02:24.050Z,87.50
2022-12-05T07:02:57.409Z,87.77
2022-12-05T07:03:30.665Z,88.12
2022-12-05T07:04:07.438Z,87.88
2022-12-05T07:04:40.741Z,88.01
2022-12-05T07:05:14.014Z,87.99
2022-12-05T07:05:47.302Z,87.70
2022-12-05T07:06:20.571Z,87.96
2022-12-05T07:06:55.701Z,87.52
2022-12-05T07:07:30.106Z,87.38
2022-12-05T07:08:03.541Z,87.57
2022-12-05T07:08:36.794Z,87.58
2022-12-05T07:09:10.829Z,87.43
2022-12-05T07:09:48.655Z,87.74
2022-12-05T07:10:21.846Z,87.98
2022-12-05T07:10:57.816Z,88.19
2022-12-05T07:11:31.420Z,88.14
2022-12-05T07:12:04.857Z,88.29
2022-12-05T07:12:38.139Z,88.48
2022-12-05T07:13:15.567Z,88.73
2022-12-05T07:13:49.349Z,88.64
2022-12-05T07:14:46.392Z,88.78
2022-12-05T07:15:17.624Z,88.25
2022-12-05T07:15:51.421Z,88.55
2022-12-05T07:16:25.007Z,88.32
2022-12-05T07:16:58.376Z,88.42
2022-12-05T07:17:36.627Z,88.47
2022-12-05T07:18:09.804Z,88.57
2022-12-05T07:18:43.018Z,88.77
2022-12-05T07:19:16.355Z,88.65
2022-12-05T07:19:50.966Z,88.77
2022-12-05T07:20:24.279Z,88.70
2022-12-05T07:21:15.264Z,88.74
2022-12-05T07:21:48.648Z,88.04
2022-12-05T07:22:27.913Z,88.15
2022-12-05T07:23:01.136Z,88.15
2022-12-05T07:23:34.338Z,88.36
2022-12-05T07:24:08.599Z,88.56
2022-12-05T07:24:41.885Z,88.34
2022-12-05T07:25:15.134Z,88.52
2022-12-05T07:25:48.339Z,88.08
2022-12-05T07:26:23.993Z,88.24
2022-12-05T07:26:59.411Z,88.20
2022-12-05T07:27:34.252Z,88.75
2022-12-05T07:28:08.549Z,88.62
2022-12-05T07:28:42.615Z,88.64
2022-12-05T07:29:16.008Z,88.65
2022-12-05T07:29:49.183Z,88.98
2022-12-05T07:30:22.509Z,88.88
2022-12-05T07:31:03.127Z,88.93
2022-12-05T07:31:37.157Z,89.05
2022-12-05T07:32:10.742Z,89.36
2022-12-05T07:32:45.004Z,89.47
2022-12-05T07:33:18.347Z,89.54
2022-12-05T07:33:51.684Z,89.51
2022-12-05T07:34:25.109Z,89.38
2022-12-05T07:34:58.384Z,89.67
2022-12-05T07:35:31.589Z,89.57
2022-12-05T07:36:16.203Z,89.36
2022-12-05T07:36:49.410Z,89.27
2022-12-05T07:37:26.113Z,89.36
2022-12-05T07:37:59.344Z,89.57
2022-12-05T07:38:33.058Z,89.39
2022-12-05T07:39:06.313Z,89.30
2022-12-05T07:39:39.830Z,89.42
2022-12-05T07:40:13.568Z,89.11
2022-12-05T07:40:46.760Z,89.28
2022-12-05T07:41:23.158Z,89.34
2022-12-05T07:41:56.530Z,89.37
2022-12-05T07:42:29.738Z,89.44
2022-12-05T07:43:02.974Z,89.38
2022-12-05T07:43:37.613Z,89.32
2022-12-05T07:44:14.737Z,89.25
2022-12-05T07:44:47.990Z,89.04
2022-12-05T07:45:21.523Z,89.13
2022-12-05T07:45:54.861Z,88.92
2022-12-05T07:46:30.684Z,88.60
2022-12-05T07:47:03.977Z,89.06
2022-12-05T07:47:37.180Z,89.13
2022-12-05T07:48:13.310Z,89.14
2022-12-05T07:48:51.090Z,88.80
2022-12-05T07:49:24.344Z,88.96
2022-12-05T07:49:58.104Z,88.83
2022-12-05T07:50:31.514Z,89.11
2022-12-05T07:51:06.597Z,88.98
2022-12-05T07:51:42.974Z,88.71
2022-12-05T07:52:18.284Z,88.52
2022-12-05T07:52:54.037Z,88.77
2022-12-05T07:53:31.487Z,88.65
2022-12-05T07:54:07.504Z,88.64
2022-12-05T07:54:41.684Z,88.85
2022-12-05T07:55:14.922Z,88.94
2022-12-05T07:55:51.618Z,88.94
2022-12-05T07:56:24.902Z,88.70
2022-12-05T07:57:00.365Z,88.80
2022-12-05T07:57:36.694Z,88.93
2022-12-05T07:58:09.855Z,89.05
2022-12-05T07:58:44.734Z,88.96
2022-12-05T07:59:18.141Z,88.97
2022-12-05T07:59:51.408Z,89.19
2022-12-05T08:00:24.611Z,89.36
2022-12-05T08:01:08.798Z,89.33
2022-12-05T08:01:42.334Z,89.23
2022-12-05T08:02:15.888Z,89.20
2022-12-05T08:02:49.454Z,89.10
2022-12-05T08:03:24.042Z,89.44
2022-12-05T08:03:59.353Z,89.54
2022-12-05T08:04:34.969Z,89.62
2022-12-05T08:05:11.314Z,89.59
2022-12-05T08:05:44.657Z,88.89
2022-12-05T08:06:22.837Z,89.04
2022-12-05T08:06:58.593Z,88.88
2022-12-05T08:07:36.133Z,88.59
2022-12-05T08:08:09.527Z,88.89
2022-12-05T08:08:54.338Z,88.90
2022-12-05T08:09:28.905Z,88.93
2022-12-05T08:10:02.114Z,89.09
2022-12-05T08:10:35.690Z,89.20
2022-12-05T08:11:12.336Z,89.40
2022-12-05T08:11:51.060Z,89.63
2022-12-05T08:12:25.768Z,89.38
2022-12-05T08:13:00.281Z,89.29
2022-12-05T08:13:34.372Z,89.53
2022-12-05T08:14:07.735Z,89.60
2022-12-05T08:14:40.982Z,89.37
2022-12-05T08:15:14.408Z,89.40